createdAt,value
2023-03-05T00:00:09.872Z,0
2023-03-05T00:05:07.215Z,0
2023-03-05T00:10:07.218Z,0
2023-03-05T00:15:06.708Z,0
2023-03-05T00:20:06.171Z,0
2023-03-05T00:25:05.793Z,0
2023-03-05T00:30:05.817Z,0
2023-03-05T00:35:05.683Z,0
2023-03-05T00:40:05.513Z,0
2023-03-05T00:45:06.932Z,0
2023-03-05T00:50:02.568Z,0
2023-03-05T00:55:03.285Z,0
2023-03-05T00:59:23.707Z,0
2023-03-05T01:04:23.912Z,0
2023-03-05T01:09:21.182Z,0
2023-03-05T01:14:20.776Z,0
2023-03-05T01:19:20.390Z,0
2023-03-05T01:24:19.748Z,0
2023-03-05T01:29:19.548Z,0
2023-03-05T01:34:20.558Z,0
2023-03-05T01:39:19.071Z,0
2023-03-05T01:44:18.727Z,0
2023-03-05T01:49:15.859Z,0
2023-03-05T01:54:15.802Z,0
2023-03-05T01:59:09.090Z,0
2023-03-05T02:04:09.589Z,0
2023-03-05T02:09:10.621Z,0
2023-03-05T02:14:12.864Z,0
2023-03-05T02:19:09.489Z,0
2023-03-05T02:24:09.906Z,0
2023-03-05T02:29:09.511Z,0
2023-03-05T02:34:06.664Z,0
2023-03-05T02:39:06.512Z,0
2023-03-05T02:44:06.890Z,0
2023-03-05T02:49:05.484Z,0
2023-03-05T02:54:03.913Z,0
2023-03-05T02:58:48.445Z,0
2023-03-05T03:03:47.770Z,0
2023-03-05T03:08:47.153Z,0
2023-03-05T03:13:45.545Z,0
2023-03-05T03:18:45.325Z,0
2023-03-05T03:23:44.933Z,0
2023-03-05T03:28:44.612Z,0
2023-03-05T03:33:53.151Z,0
2023-03-05T03:38:52.646Z,0
2023-03-05T03:43:52.947Z,0
2023-03-05T03:48:51.218Z,0
2023-03-05T03:53:51.819Z,0
2023-03-05T03:58:51.663Z,0
2023-03-05T04:03:52.792Z,0
2023-03-05T04:08:49.295Z,0
2023-03-05T04:13:50.632Z,0
2023-03-05T04:18:50.416Z,0
2023-03-05T04:23:47.385Z,0
2023-03-05T04:28:47.192Z,0
2023-03-05T04:33:47.920Z,0
2023-03-05T04:38:34.544Z,0
2023-03-05T04:43:34.473Z,0
2023-03-05T04:48:34.729Z,0
2023-03-05T04:53:35.017Z,0
2023-03-05T04:58:31.758Z,0
2023-03-05T04:59:52.569Z,0
2023-03-05T05:04:51.828Z,0
2023-03-05T05:09:51.685Z,0
2023-03-05T05:14:49.300Z,0
2023-03-05T05:19:48.934Z,0
2023-03-05T05:24:48.652Z,0
2023-03-05T05:29:47.933Z,0
2023-03-05T05:34:47.765Z,0
2023-03-05T05:39:47.254Z,0
2023-03-05T05:44:47.557Z,0
2023-03-05T05:49:46.759Z,0
2023-03-05T05:54:47.939Z,0
2023-03-05T05:58:54.691Z,0
2023-03-05T06:03:54.788Z,0
2023-03-05T06:08:54.711Z,0
2023-03-05T06:13:54.177Z,0
2023-03-05T06:18:52.189Z,0
2023-03-05T06:23:52.035Z,0
2023-03-05T06:28:52.492Z,0
2023-03-05T06:33:53.565Z,0.01
2023-03-05T06:38:54.515Z,0.01
2023-03-05T06:43:49.399Z,0.01
2023-03-05T06:48:48.664Z,0.01
2023-03-05T06:53:52.154Z,0.02
2023-03-05T06:58:46.523Z,0.02
2023-03-05T07:03:46.359Z,0.03
2023-03-05T07:08:45.616Z,0.02
2023-03-05T07:13:45.418Z,0.02
2023-03-05T07:18:44.953Z,0.02
2023-03-05T07:23:44.338Z,0.03
2023-03-05T07:28:44.794Z,0.05
2023-03-05T07:33:44.336Z,0.07
2023-03-05T07:38:45.071Z,0.06
2023-03-05T07:43:52.213Z,0.06
2023-03-05T07:48:52.183Z,0.05
2023-03-05T07:53:52.236Z,0.04
2023-03-05T07:58:50.326Z,0.05
2023-03-05T08:03:49.923Z,0.07
2023-03-05T08:08:50.748Z,0.09
2023-03-05T08:13:47.493Z,0.11
2023-03-05T08:18:47.472Z,0.11
2023-03-05T08:23:47.997Z,0.11
2023-03-05T08:28:37.019Z,0.11
2023-03-05T08:33:37.993Z,0.12
2023-03-05T08:38:35.213Z,0.14
2023-03-05T08:43:34.649Z,0.15
2023-03-05T08:48:34.608Z,0.17
2023-03-05T08:53:34.024Z,0.14
2023-03-05T08:58:34.725Z,0.14
2023-03-05T08:59:55.488Z,0.14
2023-03-05T09:04:56.536Z,0.14
2023-03-05T09:09:53.237Z,0.14
2023-03-05T09:14:54.527Z,0.12
2023-03-05T09:19:53.180Z,0.11
2023-03-05T09:24:53.056Z,0.11
2023-03-05T09:29:49.878Z,0.11
2023-03-05T09:39:49.283Z,0.15
2023-03-05T09:44:49.888Z,0.15
2023-03-05T09:49:46.371Z,0.16
2023-03-05T09:54:46.328Z,0.18
2023-03-05T09:59:16.123Z,0.21
2023-03-05T10:04:14.721Z,0.21
2023-03-05T10:09:12.332Z,0.17
2023-03-05T10:14:13.196Z,0.17
2023-03-05T10:19:11.815Z,0.15
2023-03-05T10:24:13.120Z,0.11
2023-03-05T10:29:08.748Z,0.11
2023-03-05T10:34:08.858Z,0.15
2023-03-05T10:39:08.262Z,0.14
2023-03-05T10:44:08.226Z,0.14
2023-03-05T10:49:05.482Z,0.1
2023-03-05T10:54:06.266Z,0.08
2023-03-05T10:59:46.025Z,0.06
2023-03-05T11:03:52.964Z,0.07
2023-03-05T11:08:51.793Z,0.11
2023-03-05T11:13:52.553Z,0.1
2023-03-05T11:18:50.801Z,0.1
2023-03-05T11:23:50.480Z,0.1
2023-03-05T11:28:50.644Z,0.08
2023-03-05T11:33:50.268Z,0.07
2023-03-05T11:38:51.236Z,0.09
2023-03-05T11:43:47.303Z,0.11
2023-03-05T11:48:47.734Z,0.08
2023-03-05T11:53:47.150Z,0.08
2023-03-05T11:58:47.013Z,0.08
2023-03-05T12:03:44.557Z,0.08
2023-03-05T12:08:44.207Z,0.09
2023-03-05T12:13:47.268Z,0.14
2023-03-05T12:18:54.604Z,0.14
2023-03-05T12:23:52.627Z,0.12
2023-03-05T12:28:52.104Z,0.1
2023-03-05T12:33:51.719Z,0.1
2023-03-05T12:38:50.502Z,0.13
2023-03-05T12:43:50.776Z,0.13
2023-03-05T12:48:50.628Z,0.12
2023-03-05T12:53:51.075Z,0.12
2023-03-05T12:58:48.059Z,0.12
2023-03-05T13:00:09.989Z,0.12
2023-03-05T13:05:11.036Z,0.11
2023-03-05T13:10:07.266Z,0.12
2023-03-05T13:15:07.373Z,0.09
2023-03-05T13:20:06.845Z,0.09
2023-03-05T13:25:06.484Z,0.09
2023-03-05T13:30:05.444Z,0.07
2023-03-05T13:35:04.204Z,0.05
2023-03-05T13:40:03.815Z,0.04
2023-03-05T13:45:04.034Z,0.03
2023-03-05T13:50:02.968Z,0.02
2023-03-05T13:55:02.524Z,0.02
2023-03-05T13:59:23.890Z,0.05
2023-03-05T14:04:23.176Z,0.06
2023-03-05T14:09:24.480Z,0.07
2023-03-05T14:14:20.463Z,0.08
2023-03-05T14:19:20.094Z,0.07
2023-03-05T14:24:19.094Z,0.06
2023-03-05T14:29:19.015Z,0.06
2023-03-05T14:34:16.984Z,0.06
2023-03-05T14:39:17.522Z,0.05
2023-03-05T14:44:17.048Z,0.06
2023-03-05T14:49:18.028Z,0.06
2023-03-05T14:54:14.263Z,0.05
2023-03-05T14:59:09.116Z,0.03
2023-03-05T15:04:09.227Z,0.02
2023-03-05T15:09:09.664Z,0.03
2023-03-05T15:14:06.395Z,0.03
2023-03-05T15:19:05.867Z,0.04
2023-03-05T15:24:06.152Z,0.04
2023-03-05T15:29:04.852Z,0.04
2023-03-05T15:34:04.662Z,0.04
2023-03-05T15:39:04.711Z,0.04
2023-03-05T15:49:04.240Z,0.03
2023-03-05T15:54:05.792Z,0.02
2023-03-05T15:58:47.195Z,0.02
2023-03-05T16:03:47.563Z,0.02
2023-03-05T16:08:46.679Z,0.01
2023-03-05T16:13:45.549Z,0.01
2023-03-05T16:18:45.152Z,0.01
2023-03-05T16:23:45.359Z,0.01
2023-03-05T16:28:44.826Z,0.01
2023-03-05T16:33:46.034Z,0
2023-03-05T16:38:53.376Z,0
2023-03-05T16:43:52.482Z,0
2023-03-05T16:48:53.195Z,0
2023-03-05T16:53:50.962Z,0
2023-03-05T16:58:54.924Z,0
2023-03-05T17:03:50.820Z,0
2023-03-05T17:08:49.370Z,0
2023-03-05T17:13:51.854Z,0
2023-03-05T17:18:49.332Z,0
2023-03-05T17:23:49.954Z,0
2023-03-05T17:28:46.964Z,0
2023-03-05T17:33:36.643Z,0
2023-03-05T17:38:36.053Z,0
2023-03-05T17:43:35.014Z,0
2023-03-05T17:48:34.998Z,0
2023-03-05T17:53:34.752Z,0
2023-03-05T17:58:34.781Z,0
2023-03-05T17:59:56.355Z,0
2023-03-05T18:04:56.480Z,0
2023-03-05T18:09:55.589Z,0
2023-03-05T18:14:55.509Z,0
2023-03-05T18:19:54.415Z,0
2023-03-05T18:24:54.138Z,0
2023-03-05T18:29:54.203Z,0
2023-03-05T18:34:53.784Z,0
2023-03-05T18:39:54.526Z,0
2023-03-05T18:44:50.532Z,0
2023-03-05T18:49:50.730Z,0
2023-03-05T18:54:49.919Z,0
2023-03-05T18:58:59.007Z,0
2023-03-05T19:03:54.153Z,0
2023-03-05T19:08:54.140Z,0
2023-03-05T19:13:53.393Z,0
2023-03-05T19:18:52.838Z,0
2023-03-05T19:23:52.243Z,0
2023-03-05T19:28:52.900Z,0
2023-03-05T19:33:51.998Z,0
2023-03-05T19:38:52.986Z,0
2023-03-05T19:43:49.216Z,0
2023-03-05T19:48:49.424Z,0
2023-03-05T19:53:48.262Z,0
2023-03-05T19:58:48.429Z,0
2023-03-05T20:03:47.720Z,0
2023-03-05T20:08:47.871Z,0
2023-03-05T20:13:46.413Z,0
2023-03-05T20:18:46.320Z,0
2023-03-05T20:23:47.615Z,0
2023-03-05T20:28:43.972Z,0
2023-03-05T20:33:44.035Z,0
2023-03-05T20:38:54.254Z,0
2023-03-05T20:43:54.348Z,0
2023-03-05T20:48:51.356Z,0
2023-03-05T20:53:51.314Z,0
2023-03-05T20:58:52.858Z,0
2023-03-05T21:03:49.598Z,0
2023-03-05T21:08:49.896Z,0
2023-03-05T21:13:51.131Z,0
2023-03-05T21:18:48.047Z,0
2023-03-05T21:23:48.106Z,0
2023-03-05T21:28:48.318Z,0
2023-03-05T21:33:35.274Z,0
2023-03-05T21:38:35.476Z,0
2023-03-05T21:43:34.541Z,0
2023-03-05T21:48:34.683Z,0
2023-03-05T21:53:32.172Z,0
2023-03-05T21:58:31.921Z,0
2023-03-05T21:59:53.757Z,0
2023-03-05T22:04:53.351Z,0
2023-03-05T22:09:52.483Z,0
2023-03-05T22:14:52.041Z,0
2023-03-05T22:19:51.971Z,0
2023-03-05T22:24:51.807Z,0
2023-03-05T22:29:52.984Z,0
2023-03-05T22:34:49.013Z,0
2023-03-05T22:39:49.453Z,0
2023-03-05T22:44:49.316Z,0
2023-03-05T22:49:49.663Z,0
2023-03-05T22:54:48.452Z,0
2023-03-05T22:59:13.856Z,0
2023-03-05T23:04:14.301Z,0
2023-03-05T23:09:15.052Z,0
2023-03-05T23:14:11.346Z,0
2023-03-05T23:19:11.097Z,0
2023-03-05T23:24:10.538Z,0
2023-03-05T23:29:10.611Z,0
2023-03-05T23:34:07.997Z,0
2023-03-05T23:39:07.734Z,0
2023-03-05T23:44:06.831Z,0
2023-03-05T23:49:07.086Z,0
2023-03-05T23:54:06.102Z,0
2023-03-05T23:58:51.614Z,0
